Atterbury, Illinois
Current Conditions -  °F | °C
As of 10:13 PM on Wednesday 26 Nov 2014 (Local Time) from KSPI Reporting Station
Light Snow Light Snow  
Wind Chill: 20°   Ceiling: 600
Heat Index: 29°   Visibility: 1.7mi
Dew Point: 26°   Wind: 10mph
Humidity: 89%   Direction: 10°N
Pressure: 30.19"   Gusts: NA
Location:  40.0452°N, 89.8548°W
Report Text: KSPI 270413Z AUTO 01009KT 1 3/4SM -SN BR BKN006 OVC019 M02/M03 A3019 RMK AO2 P0001 T10171033
Loading
Personal Weather Stations






























Interactive Weather Map New forecast layout! Learn more

10-Day Weather Forecast

Advertisements
Track Severe Weather on mobile